Time;durP1;ratioP1;P1;durP2;ratioP2;P2;SDS_P1;SDS_P2;PMS_P1;PMS_P2;Temp;Humidity;BMP_temperature;BMP_pressure;BME280_temperature;BME280_humidity;BME280_pressure;Samples;Min_cycle;Max_cycle;Signal;HPM_P1;HPM_P2
2023/01/22 00:00:06;;;;;;;36.20;23.00;;;;;;;2.85;100.00;100986.22;179484;1267;45173;-66
2023/01/22 00:04:30;;;;;;;49.40;27.00;;;;;;;2.89;100.00;100987.65;179771;1266;61628;-68
2023/01/22 00:09:38;;;;;;;41.10;23.20;;;;;;;2.93;100.00;100981.00;179731;1267;44567;-66
2023/01/22 00:13:42;;;;;;;42.90;25.10;;;;;;;2.97;100.00;100985.23;179815;1266;46120;-67
2023/01/22 00:17:45;;;;;;;49.50;27.70;;;;;;;3.02;100.00;100989.94;180146;1267;44732;-66
2023/01/22 00:21:48;;;;;;;51.50;26.10;;;;;;;3.09;100.00;100991.80;180249;1267;43649;-67
2023/01/22 00:26:01;;;;;;;44.30;25.90;;;;;;;3.14;100.00;101002.10;179757;1265;58068;-68
2023/01/22 00:30:05;;;;;;;47.20;23.50;;;;;;;3.18;100.00;101010.37;179731;1266;45751;-67
2023/01/22 00:35:05;;;;;;;33.40;22.50;;;;;;;3.20;100.00;101017.98;179732;1267;45529;-68
2023/01/22 00:39:09;;;;;;;37.40;23.30;;;;;;;3.20;100.00;101011.88;179611;1265;45879;-67
2023/01/22 00:43:11;;;;;;;47.10;29.00;;;;;;;3.23;100.00;101003.51;179572;1267;45986;-69
2023/01/22 00:47:14;;;;;;;44.70;28.80;;;;;;;3.27;100.00;101013.31;179715;1267;58228;-68
2023/01/22 00:51:17;;;;;;;39.30;24.40;;;;;;;3.30;100.00;101021.80;179756;1265;46042;-69
2023/01/22 00:55:20;;;;;;;35.20;21.80;;;;;;;3.27;100.00;101019.81;179659;1265;43699;-70
2023/01/22 00:59:23;;;;;;;44.40;26.40;;;;;;;3.28;100.00;101015.23;179807;1266;43524;-68
2023/01/22 01:03:26;;;;;;;44.50;24.70;;;;;;;3.30;100.00;101023.02;179761;1266;43786;-69
2023/01/22 01:07:29;;;;;;;36.60;22.20;;;;;;;3.33;100.00;101034.85;179780;1267;57959;-69
2023/01/22 01:11:32;;;;;;;34.70;17.90;;;;;;;3.35;100.00;101032.50;179599;1265;44779;-69
2023/01/22 01:21:16;;;;;;;35.20;20.30;;;;;;;3.29;100.00;101045.35;180308;1266;45996;-71
2023/01/22 01:36:05;;;;;;;37.80;20.60;;;;;;;3.17;100.00;101048.79;179797;1267;45924;-71
2023/01/22 01:40:09;;;;;;;39.00;23.80;;;;;;;3.14;100.00;101048.55;179573;1267;45885;-70
2023/01/22 01:44:36;;;;;;;36.40;19.70;;;;;;;3.13;100.00;101053.66;179894;1267;45896;-69
2023/01/22 01:48:45;;;;;;;31.70;21.00;;;;;;;3.09;100.00;101055.59;179844;1267;45948;-69
2023/01/22 01:52:48;;;;;;;34.90;23.20;;;;;;;3.08;100.00;101061.41;179608;1268;59212;-73
2023/01/22 02:01:17;;;;;;;31.10;20.60;;;;;;;3.05;100.00;101071.34;179913;1267;43792;-70
2023/01/22 02:05:23;;;;;;;31.80;20.70;;;;;;;3.04;100.00;101074.00;180038;1267;44560;-73
2023/01/22 02:09:26;;;;;;;33.60;20.50;;;;;;;3.04;100.00;101073.47;179949;1266;43482;-72
2023/01/22 02:13:34;;;;;;;35.10;21.80;;;;;;;3.02;100.00;101076.00;180068;1267;58195;-70
2023/01/22 02:17:37;;;;;;;35.20;20.50;;;;;;;3.02;100.00;101077.91;180007;1265;43496;-71
2023/01/22 02:21:42;;;;;;;34.50;23.40;;;;;;;3.02;100.00;101079.84;180184;1266;44094;-72
2023/01/22 02:25:45;;;;;;;44.50;22.50;;;;;;;3.01;100.00;101083.05;180097;1265;43790;-74
2023/01/22 02:29:49;;;;;;;38.50;20.30;;;;;;;2.98;100.00;101083.67;179942;1267;43974;-72
2023/01/22 02:33:52;;;;;;;33.90;21.00;;;;;;;2.94;100.00;101083.13;179826;1270;59607;-70
2023/01/22 02:37:55;;;;;;;47.50;23.50;;;;;;;2.90;100.00;101085.73;180132;1267;44656;-71
2023/01/22 02:42:02;;;;;;;42.40;24.30;;;;;;;2.83;100.00;101087.55;179865;1267;45934;-72
2023/01/22 02:46:04;;;;;;;41.60;25.50;;;;;;;2.78;100.00;101091.42;179865;1265;45038;-69
2023/01/22 02:50:09;;;;;;;46.90;25.80;;;;;;;2.73;100.00;101093.68;179972;1268;43594;-69
2023/01/22 02:54:12;;;;;;;42.30;24.20;;;;;;;2.69;100.00;101099.79;179942;1266;58387;-68
2023/01/22 02:58:16;;;;;;;44.30;26.50;;;;;;;2.71;100.00;101105.32;179961;1267;44565;-69
2023/01/22 03:02:19;;;;;;;47.40;29.90;;;;;;;2.67;100.00;101108.80;179967;1267;44613;-69
2023/01/22 03:06:29;;;;;;;46.10;27.70;;;;;;;2.68;100.00;101113.30;180100;1267;43939;-68
2023/01/22 03:10:31;;;;;;;49.30;27.50;;;;;;;2.69;100.00;101121.00;179949;1267;44013;-68
2023/01/22 03:23:17;;;;;;;45.00;26.50;;;;;;;2.68;100.00;101123.30;179985;1267;44596;-70
2023/01/22 03:27:23;;;;;;;49.70;28.30;;;;;;;2.67;100.00;101121.20;180035;1269;43954;-70
2023/01/22 03:31:28;;;;;;;45.20;26.60;;;;;;;2.69;100.00;101118.89;180041;1267;45998;-70
2023/01/22 03:35:32;;;;;;;40.10;25.70;;;;;;;2.65;100.00;101117.27;179873;1267;57920;-68
2023/01/22 03:39:34;;;;;;;57.30;29.90;;;;;;;2.66;100.00;101118.96;179877;1267;45941;-68
2023/01/22 03:43:47;;;;;;;53.70;30.10;;;;;;;2.70;100.00;101119.34;180060;1267;43727;-67
2023/01/22 03:47:56;;;;;;;48.50;30.70;;;;;;;2.71;100.00;101118.98;180070;1267;45922;-68
2023/01/22 03:51:59;;;;;;;54.40;28.30;;;;;;;2.68;100.00;101123.11;179871;1267;44715;-66
2023/01/22 03:56:11;;;;;;;57.20;31.10;;;;;;;2.62;100.00;101131.22;180076;1267;59190;-66
2023/01/22 04:00:14;;;;;;;64.80;31.90;;;;;;;2.58;100.00;101128.20;179912;1269;44640;-66
2023/01/22 04:04:27;;;;;;;58.30;33.10;;;;;;;2.59;100.00;101127.65;180102;1267;44513;-66
2023/01/22 04:08:31;;;;;;;51.50;27.80;;;;;;;2.63;100.00;101137.29;180012;1267;43812;-66
2023/01/22 04:12:38;;;;;;;51.20;32.80;;;;;;;2.67;100.00;101138.21;179684;1267;44545;-66
2023/01/22 04:16:41;;;;;;;46.30;29.10;;;;;;;2.71;100.00;101146.13;179890;1267;57946;-67
2023/01/22 04:20:45;;;;;;;46.40;27.80;;;;;;;2.77;100.00;101151.73;179700;1267;43766;-67
2023/01/22 04:25:18;;;;;;;47.60;29.90;;;;;;;2.81;100.00;101152.11;179325;1267;43712;-66
2023/01/22 04:29:21;;;;;;;54.50;30.20;;;;;;;2.85;100.00;101155.29;179596;1268;45989;-63
2023/01/22 04:33:24;;;;;;;56.00;30.60;;;;;;;2.85;100.00;101150.91;179562;1267;43582;-64
2023/01/22 04:37:27;;;;;;;63.00;33.70;;;;;;;2.93;100.00;101155.52;179685;1267;58951;-64
2023/01/22 04:41:41;;;;;;;57.80;30.90;;;;;;;3.01;100.00;101155.94;179506;1271;43818;-65
2023/01/22 04:45:44;;;;;;;44.20;26.20;;;;;;;3.04;100.00;101158.98;179607;1267;43779;-66
2023/01/22 04:49:47;;;;;;;40.50;27.50;;;;;;;3.04;100.00;101162.67;179508;1267;43783;-66
2023/01/22 04:53:50;;;;;;;36.30;23.40;;;;;;;3.05;100.00;101158.95;179550;1267;44522;-66
2023/01/22 04:57:55;;;;;;;43.70;28.50;;;;;;;3.03;100.00;101167.27;179628;1269;58290;-64
2023/01/22 05:01:58;;;;;;;40.90;24.10;;;;;;;3.02;100.00;101176.59;179660;1266;44656;-64
2023/01/22 05:06:04;;;;;;;45.30;29.60;;;;;;;2.99;100.00;101174.42;179596;1267;43681;-65
2023/01/22 05:10:59;;;;;;;42.40;28.10;;;;;;;2.98;100.00;101175.84;179635;1267;46171;-64
2023/01/22 05:15:03;;;;;;;38.80;24.50;;;;;;;2.99;100.00;101177.91;179628;1267;44910;-65
2023/01/22 05:19:27;;;;;;;49.00;30.20;;;;;;;3.03;100.00;101177.60;179573;1267;58722;-66
2023/01/22 05:23:30;;;;;;;57.40;32.30;;;;;;;3.09;100.00;101183.19;179457;1267;46037;-62
2023/01/22 05:27:45;;;;;;;38.50;23.10;;;;;;;3.11;100.00;101189.76;179677;1267;46003;-62
2023/01/22 05:31:48;;;;;;;50.80;27.40;;;;;;;3.10;100.00;101192.79;179623;1266;43757;-64
2023/01/22 05:36:01;;;;;;;34.20;22.70;;;;;;;3.08;100.00;101194.95;179613;1267;43569;-61
2023/01/22 05:40:05;;;;;;;47.70;27.40;;;;;;;3.07;100.00;101204.80;179388;1267;58449;-65
2023/01/22 05:44:11;;;;;;;33.90;23.00;;;;;;;3.07;100.00;101213.74;179730;1267;43525;-65
2023/01/22 05:48:13;;;;;;;37.00;23.20;;;;;;;3.07;100.00;101219.52;179295;1271;43770;-64
2023/01/22 05:52:17;;;;;;;39.90;22.70;;;;;;;3.09;100.00;101226.80;179479;1267;45369;-66
2023/01/22 05:56:25;;;;;;;33.40;20.40;;;;;;;3.10;100.00;101234.83;179611;1267;43637;-63
2023/01/22 06:00:28;;;;;;;31.20;19.20;;;;;;;3.11;100.00;101233.59;179487;1267;58960;-65
2023/01/22 06:04:31;;;;;;;35.00;24.00;;;;;;;3.10;100.00;101237.30;179429;1267;45979;-63
2023/01/22 06:08:33;;;;;;;43.90;24.40;;;;;;;3.10;100.00;101238.34;179680;1267;43553;-63
2023/01/22 06:13:02;;;;;;;42.40;22.30;;;;;;;3.11;100.00;101245.33;179481;1267;46069;-65
2023/01/22 06:17:04;;;;;;;42.60;29.40;;;;;;;3.14;100.00;101247.33;179702;1267;43797;-63
2023/01/22 06:21:14;;;;;;;33.90;23.10;;;;;;;3.15;100.00;101245.70;179695;1267;57494;-64
2023/01/22 06:25:17;;;;;;;38.90;22.70;;;;;;;3.17;100.00;101253.52;179803;1267;43588;-63
2023/01/22 06:29:21;;;;;;;35.70;23.50;;;;;;;3.19;100.00;101259.58;179643;1267;45359;-67
2023/01/22 06:33:25;;;;;;;39.00;21.50;;;;;;;3.22;100.00;101266.84;179758;1267;43612;-64
2023/01/22 06:37:28;;;;;;;38.80;23.30;;;;;;;3.25;100.00;101268.66;179684;1267;43959;-65
2023/01/22 06:41:40;;;;;;;36.00;21.50;;;;;;;3.24;100.00;101269.76;179325;1267;58890;-64
2023/01/22 06:45:43;;;;;;;30.30;22.50;;;;;;;3.23;100.00;101272.77;179390;1267;45309;-67
2023/01/22 06:49:46;;;;;;;36.80;22.90;;;;;;;3.24;100.00;101280.29;179631;1267;43824;-63
2023/01/22 06:53:49;;;;;;;27.00;18.50;;;;;;;3.25;100.00;101279.38;179343;1267;46056;-62
2023/01/22 06:57:56;;;;;;;29.80;19.50;;;;;;;3.22;100.00;101280.16;179568;1267;43786;-63
2023/01/22 07:01:59;;;;;;;31.60;19.20;;;;;;;3.21;100.00;101280.90;179549;1268;58764;-64
2023/01/22 07:06:04;;;;;;;33.90;21.40;;;;;;;3.19;100.00;101294.14;179615;1267;45274;-63
2023/01/22 07:11:13;;;;;;;31.30;19.70;;;;;;;3.17;100.00;101297.72;179588;1267;46041;-63
2023/01/22 07:15:17;;;;;;;24.40;15.60;;;;;;;3.18;100.00;101307.14;179585;1267;45923;-63
2023/01/22 07:19:20;;;;;;;81.60;47.50;;;;;;;3.18;100.00;101306.42;179549;1267;45357;-63
2023/01/22 07:23:23;;;;;;;114.50;61.60;;;;;;;3.22;100.00;101311.73;179415;1267;58956;-63
2023/01/22 07:51:42;;;;;;;47.20;27.80;;;;;;;3.58;100.00;101315.73;148327;1263;73691;-63
2023/01/22 07:55:45;;;;;;;50.50;29.30;;;;;;;3.61;100.00;101329.67;179576;1264;43749;-62
2023/01/22 07:59:48;;;;;;;53.30;33.80;;;;;;;3.60;100.00;101336.17;179650;1265;44191;-62
2023/01/22 08:03:51;;;;;;;53.60;32.90;;;;;;;3.60;100.00;101336.56;179953;1265;43647;-61
2023/01/22 08:07:54;;;;;;;41.60;29.20;;;;;;;3.56;100.00;101337.91;180023;1264;58503;-61
2023/01/22 08:11:58;;;;;;;47.90;29.00;;;;;;;3.50;100.00;101345.10;179778;1265;45263;-61
2023/01/22 08:16:01;;;;;;;44.60;25.90;;;;;;;3.43;100.00;101345.36;179952;1264;43679;-63
2023/01/22 08:20:06;;;;;;;46.40;26.10;;;;;;;3.45;100.00;101353.38;179866;1264;45003;-62
2023/01/22 08:24:15;;;;;;;33.80;24.00;;;;;;;3.48;100.00;101351.52;179787;1265;44172;-63
2023/01/22 08:28:18;;;;;;;45.30;26.70;;;;;;;3.44;100.00;101351.30;179877;1265;58008;-63
2023/01/22 08:33:21;;;;;;;59.40;37.50;;;;;;;3.37;100.00;101349.27;180016;1264;46010;-62
2023/01/22 08:37:24;;;;;;;54.10;37.00;;;;;;;3.35;100.00;101348.28;179761;1264;43607;-64
2023/01/22 08:41:48;;;;;;;55.10;32.40;;;;;;;3.34;100.00;101351.48;179761;1264;46046;-62
2023/01/22 08:45:51;;;;;;;46.50;30.30;;;;;;;3.39;100.00;101349.55;179871;1265;45926;-63
2023/01/22 08:49:56;;;;;;;51.00;32.20;;;;;;;3.44;100.00;101357.44;179802;1264;59520;-63
2023/01/22 08:54:00;;;;;;;55.80;32.60;;;;;;;3.51;100.00;101359.28;179528;1264;45991;-63
2023/01/22 08:58:04;;;;;;;54.50;33.40;;;;;;;3.58;100.00;101364.69;180407;1260;43671;-61
2023/01/22 09:02:11;;;;;;;52.00;34.10;;;;;;;3.67;100.00;101375.75;181146;1265;43168;-59
2023/01/22 09:06:22;;;;;;;48.40;31.40;;;;;;;3.77;100.00;101386.30;181049;1266;43434;-61
2023/01/22 09:10:24;;;;;;;56.60;35.40;;;;;;;3.84;100.00;101390.44;181053;1267;58350;-61
2023/01/22 09:14:27;;;;;;;53.80;34.30;;;;;;;3.91;100.00;101388.77;180961;1265;43073;-61
2023/01/22 09:19:33;;;;;;;55.70;33.20;;;;;;;3.95;100.00;101390.39;181107;1265;43193;-61
2023/01/22 09:23:36;;;;;;;64.30;39.90;;;;;;;4.02;100.00;101383.11;181045;1265;43068;-61
2023/01/22 09:27:38;;;;;;;43.50;26.20;;;;;;;4.08;100.00;101387.98;181058;1265;43047;-60
2023/01/22 09:31:44;;;;;;;33.40;22.50;;;;;;;4.07;100.00;101389.08;181056;1265;58961;-61
2023/01/22 09:35:47;;;;;;;41.40;28.40;;;;;;;4.06;100.00;101391.73;181037;1267;43462;-62
2023/01/22 09:39:51;;;;;;;32.90;25.20;;;;;;;4.07;100.00;101402.93;181078;1265;43649;-62
2023/01/22 09:44:01;;;;;;;36.60;23.40;;;;;;;4.09;100.00;101406.89;181067;1266;43011;-63
2023/01/22 09:48:21;;;;;;;;;;;;;;;4.06;100.00;101417.03;180311;1273;43167;-63
2023/01/22 09:52:27;;;;;;;46.60;29.00;;;;;;;4.06;100.00;101416.13;180390;1273;56766;-63
2023/01/22 09:56:42;;;;;;;34.30;27.10;;;;;;;4.08;100.00;101414.66;180223;1271;43767;-63
2023/01/22 10:01:08;;;;;;;61.30;37.60;;;;;;;4.07;100.00;101414.18;180317;1273;43780;-62
2023/01/22 10:05:36;;;;;;;41.00;26.00;;;;;;;4.04;100.00;101414.66;180443;1265;75679;-89
2023/01/22 10:09:44;;;;;;;46.80;29.30;;;;;;;3.98;100.00;101406.23;180312;1265;43890;-88
2023/01/22 10:13:50;;;;;;;36.20;25.80;;;;;;;3.98;100.00;101406.42;180282;1265;59401;-88
2023/01/22 10:17:56;;;;;;;43.90;25.90;;;;;;;3.98;100.00;101399.21;180213;1265;43833;-89
2023/01/22 10:22:04;;;;;;;42.50;27.90;;;;;;;3.97;100.00;101394.88;180446;1265;43934;-88
2023/01/22 10:26:20;;;;;;;44.70;26.70;;;;;;;4.04;100.00;101381.84;180544;1265;43861;-88
2023/01/22 10:30:25;;;;;;;40.30;26.20;;;;;;;4.12;100.00;101379.77;180522;1265;44155;-89
2023/01/22 10:34:33;;;;;;;42.00;26.60;;;;;;;4.20;100.00;101374.19;180376;1265;59166;-88
2023/01/22 10:38:40;;;;;;;36.60;24.90;;;;;;;4.23;100.00;101388.13;180337;1265;44113;-88
2023/01/22 10:42:44;;;;;;;44.30;26.40;;;;;;;4.24;100.00;101391.45;180793;1265;43842;-90
2023/01/22 10:46:53;;;;;;;39.50;26.30;;;;;;;4.28;100.00;101380.94;180735;1265;50125;-90
2023/01/22 10:51:13;;;;;;;40.90;25.80;;;;;;;4.24;100.00;101390.73;180737;1265;44344;-89
2023/01/22 10:55:23;;;;;;;43.50;25.90;;;;;;;4.20;100.00;101378.05;180735;1265;60680;-90
2023/01/22 11:17:39;;;;;;;39.10;23.30;;;;;;;4.00;100.00;101394.92;175672;1265;59594;-88
2023/01/22 11:21:54;;;;;;;42.70;24.80;;;;;;;3.99;100.00;101387.94;180478;1264;46649;-91
2023/01/22 12:19:13;;;;;;;33.20;18.50;;;;;;;3.66;100.00;101386.68;181001;1267;58276;-82
2023/01/22 12:23:28;;;;;;;23.10;16.90;;;;;;;3.65;100.00;101384.96;180134;1273;43372;-85
2023/01/22 12:27:39;;;;;;;27.90;19.30;;;;;;;3.65;100.00;101390.76;180082;1274;43898;-84
2023/01/22 12:32:08;;;;;;;21.20;13.80;;;;;;;3.65;100.00;101388.30;180002;1273;43762;-82
2023/01/22 12:36:24;;;;;;;24.60;16.20;;;;;;;3.56;100.00;101392.63;180024;1273;43827;-87
2023/01/22 12:45:34;;;;;;;29.00;16.70;;;;;;;3.53;100.00;101393.08;180343;1273;43325;-82
2023/01/22 12:49:45;;;;;;;27.00;17.10;;;;;;;3.58;100.00;101399.21;180260;1273;43835;-80
2023/01/22 12:53:48;;;;;;;25.30;14.80;;;;;;;3.60;100.00;101399.88;180307;1273;43889;-80
2023/01/22 12:57:51;;;;;;;25.30;16.70;;;;;;;3.63;100.00;101398.01;180494;1267;44613;-83
2023/01/22 13:02:23;;;;;;;26.60;17.40;;;;;;;3.66;100.00;101401.24;181009;1265;57928;-83
2023/01/22 13:06:46;;;;;;;20.70;14.70;;;;;;;3.70;100.00;101399.16;180985;1270;43235;-83
2023/01/22 13:11:01;;;;;;;25.10;16.20;;;;;;;3.71;100.00;101398.08;180938;1267;43346;-77
2023/01/22 13:15:13;;;;;;;21.20;13.50;;;;;;;3.75;100.00;101405.66;180611;1266;77682;-86
2023/01/22 13:19:24;;;;;;;26.50;17.10;;;;;;;3.77;100.00;101401.39;180105;1267;43809;-88
2023/01/22 13:23:30;;;;;;;27.90;19.50;;;;;;;3.78;100.00;101397.65;180734;1267;79697;-80
2023/01/22 13:33:26;;;;;;;19.50;14.30;;;;;;;3.83;100.00;101405.38;181051;1266;43684;-82
2023/01/22 13:37:34;;;;;;;29.00;18.80;;;;;;;3.83;100.00;101403.98;180868;1267;78504;-80
2023/01/22 13:41:39;;;;;;;29.40;18.90;;;;;;;3.84;100.00;101405.67;181012;1265;43198;-79
2023/01/22 13:45:44;;;;;;;37.30;21.70;;;;;;;3.87;100.00;101410.86;180939;1266;59426;-79
2023/01/22 13:49:50;;;;;;;30.80;20.90;;;;;;;3.92;100.00;101417.55;181039;1265;43087;-78
2023/01/22 13:54:00;;;;;;;34.90;22.10;;;;;;;3.97;100.00;101419.98;181051;1265;43025;-78
2023/01/22 13:58:05;;;;;;;46.80;29.20;;;;;;;4.00;100.00;101424.79;181017;1265;43410;-79
2023/01/22 14:02:18;;;;;;;37.30;26.30;;;;;;;3.99;100.00;101424.11;181138;1265;43042;-80
2023/01/22 14:06:25;;;;;;;26.40;16.20;;;;;;;4.01;100.00;101429.48;181115;1265;58211;-81
2023/01/22 14:10:40;;;;;;;33.00;20.60;;;;;;;4.01;100.00;101432.48;180995;1266;43894;-81
2023/01/22 14:14:56;;;;;;;32.70;23.50;;;;;;;4.02;100.00;101437.52;181014;1265;44165;-80
2023/01/22 14:19:04;;;;;;;49.00;26.60;;;;;;;4.00;100.00;101444.64;180993;1265;43727;-82
2023/01/22 14:23:12;;;;;;;47.30;28.60;;;;;;;3.99;100.00;101449.94;181044;1265;43719;-83
2023/01/22 14:27:28;;;;;;;54.90;34.80;;;;;;;3.99;100.00;101457.32;181001;1265;58304;-79
2023/01/22 14:32:22;;;;;;;31.10;20.40;;;;;;;3.99;100.00;101463.45;180916;1265;43697;-81
2023/01/22 14:36:35;;;;;;;73.20;39.80;;;;;;;3.93;100.00;101464.71;180955;1265;43750;-77
2023/01/22 14:40:43;;;;;;;29.70;20.70;;;;;;;3.82;100.00;101459.27;180857;1267;43180;-79
2023/01/22 14:44:51;;;;;;;32.70;21.40;;;;;;;3.71;100.00;101452.98;181032;1265;43405;-78
2023/01/22 14:49:07;;;;;;;33.10;21.90;;;;;;;3.60;100.00;101459.31;181042;1265;58306;-77
2023/01/22 14:53:21;;;;;;;31.90;20.90;;;;;;;3.52;100.00;101463.63;180996;1265;43859;-78
2023/01/22 14:57:32;;;;;;;33.50;22.20;;;;;;;3.43;100.00;101460.58;180902;1265;43541;-77
2023/01/22 15:01:43;;;;;;;30.30;20.70;;;;;;;3.40;100.00;101468.56;180865;1268;43235;-83
2023/01/22 15:06:10;;;;;;;31.60;20.90;;;;;;;3.41;100.00;101469.79;180998;1265;43219;-80
2023/01/22 15:10:26;;;;;;;25.60;18.00;;;;;;;3.40;100.00;101474.20;181031;1266;58359;-81
2023/01/22 15:20:18;;;;;;;32.20;19.90;;;;;;;3.42;100.00;101484.81;180924;1263;78330;-76
2023/01/22 15:24:21;;;;;;;32.90;19.60;;;;;;;3.43;100.00;101479.55;180929;1267;43550;-61
2023/01/22 15:28:26;;;;;;;34.20;21.70;;;;;;;3.42;100.00;101483.08;181052;1267;43041;-61
2023/01/22 15:32:30;;;;;;;34.70;26.40;;;;;;;3.40;100.00;101485.08;180969;1268;58641;-61
2023/01/22 15:36:35;;;;;;;37.50;23.60;;;;;;;3.39;100.00;101492.29;180979;1267;44338;-62
2023/01/22 15:40:40;;;;;;;38.30;23.80;;;;;;;3.38;100.00;101488.64;180978;1267;43060;-63
2023/01/22 15:44:47;;;;;;;47.20;29.80;;;;;;;3.38;100.00;101488.30;180949;1267;43475;-62
2023/01/22 15:48:53;;;;;;;39.80;27.90;;;;;;;3.34;100.00;101495.25;180999;1267;43091;-62
2023/01/22 15:53:09;;;;;;;;;;;;;;;3.32;100.00;101501.98;180956;1261;59467;-60
2023/01/22 15:57:31;;;;;;;36.80;24.70;;;;;;;3.29;100.00;101503.80;181020;1267;44235;-62
2023/01/22 16:01:42;;;;;;;40.80;24.00;;;;;;;3.24;100.00;101505.39;181071;1267;43510;-62
2023/01/22 16:10:28;;;;;;;38.00;25.10;;;;;;;3.18;100.00;101518.73;180988;1263;74702;-76
2023/01/22 16:19:30;;;;;;;39.70;28.30;;;;;;;3.14;100.00;101531.29;157431;1260;72715;-76
2023/01/22 16:23:51;;;;;;;36.60;25.20;;;;;;;3.13;100.00;101532.02;180977;1267;43629;-77
2023/01/22 16:27:55;;;;;;;38.80;27.90;;;;;;;3.11;100.00;101536.97;181033;1267;43610;-77
2023/01/22 16:31:59;;;;;;;39.10;24.80;;;;;;;3.12;100.00;101535.20;181034;1267;43816;-76
2023/01/22 16:36:04;;;;;;;50.20;29.10;;;;;;;3.16;100.00;101540.70;180970;1266;59723;-75
2023/01/22 16:40:07;;;;;;;45.90;27.50;;;;;;;3.19;100.00;101545.85;181043;1267;43119;-75
2023/01/22 16:44:14;;;;;;;44.60;28.40;;;;;;;3.18;100.00;101548.54;181087;1266;43033;-76
2023/01/22 16:48:17;;;;;;;34.40;24.10;;;;;;;3.17;100.00;101557.48;181010;1267;43085;-76
2023/01/22 16:52:20;;;;;;;39.70;26.90;;;;;;;3.17;100.00;101561.55;181017;1267;43081;-76
2023/01/22 16:56:31;;;;;;;48.00;29.50;;;;;;;3.12;100.00;101564.98;180964;1267;58404;-76
2023/01/22 17:00:34;;;;;;;38.90;23.90;;;;;;;3.07;100.00;101570.23;181055;1267;43165;-77
2023/01/22 17:04:37;;;;;;;44.20;26.00;;;;;;;3.05;100.00;101569.80;181046;1267;43772;-72
2023/01/22 17:08:40;;;;;;;38.70;24.40;;;;;;;3.01;100.00;101576.55;180896;1266;75241;-62
2023/01/22 17:18:28;;;;;;;39.00;27.10;;;;;;;3.00;100.00;101578.14;180988;1268;58165;-77
2023/01/22 17:31:57;;;;;;;37.00;24.90;;;;;;;3.02;100.00;101583.17;180876;1262;73947;-76
2023/01/22 17:36:00;;;;;;;33.50;20.10;;;;;;;3.07;100.00;101589.70;181080;1267;43033;-73
2023/01/22 17:40:04;;;;;;;38.30;24.90;;;;;;;3.11;100.00;101589.05;181028;1267;57536;-76
2023/01/22 17:44:07;;;;;;;39.20;26.10;;;;;;;3.15;100.00;101594.72;181010;1267;43185;-76
2023/01/22 17:48:10;;;;;;;38.20;22.80;;;;;;;3.20;100.00;101600.19;181042;1267;42987;-76
2023/01/22 17:52:30;;;;;;;33.00;24.00;;;;;;;3.23;100.00;101602.89;181073;1267;43169;-76
2023/01/22 17:56:36;;;;;;;50.10;29.90;;;;;;;3.30;100.00;101610.21;181000;1268;43251;-77
2023/01/22 18:00:39;;;;;;;43.80;24.60;;;;;;;3.38;100.00;101615.08;181002;1267;58035;-77
2023/01/22 18:04:42;;;;;;;41.00;27.50;;;;;;;3.42;100.00;101612.48;181043;1267;43233;-77
2023/01/22 18:08:45;;;;;;;37.90;21.90;;;;;;;3.49;100.00;101617.39;181106;1266;43730;-77
2023/01/22 18:12:48;;;;;;;40.70;25.60;;;;;;;3.53;100.00;101627.23;181039;1267;43538;-77
2023/01/22 18:16:51;;;;;;;38.30;25.40;;;;;;;3.59;100.00;101630.42;181012;1266;43174;-77
2023/01/22 18:20:54;;;;;;;40.80;26.50;;;;;;;3.63;100.00;101634.31;181047;1267;58226;-77
2023/01/22 18:25:08;;;;;;;47.90;24.70;;;;;;;3.71;100.00;101637.92;180942;1267;43081;-78
2023/01/22 18:29:11;;;;;;;35.70;23.00;;;;;;;3.66;100.00;101634.73;180968;1267;43111;-76
2023/01/22 18:33:17;;;;;;;39.50;23.10;;;;;;;3.67;100.00;101640.49;180977;1267;43893;-74
2023/01/22 18:37:20;;;;;;;37.40;24.70;;;;;;;3.75;100.00;101645.52;180903;1267;43114;-77
2023/01/22 18:41:24;;;;;;;57.20;33.70;;;;;;;3.77;100.00;101641.95;180874;1268;59609;-76
2023/01/22 18:45:27;;;;;;;46.40;32.20;;;;;;;3.83;100.00;101642.10;180963;1267;43699;-76
2023/01/22 18:49:33;;;;;;;47.00;29.10;;;;;;;3.92;100.00;101646.58;180948;1267;43147;-78
2023/01/22 18:53:38;;;;;;;48.40;32.00;;;;;;;3.90;100.00;101653.48;180997;1267;43692;-77
2023/01/22 18:57:43;;;;;;;54.30;32.80;;;;;;;3.85;100.00;101657.67;181008;1267;43655;-77
2023/01/22 19:01:50;;;;;;;50.40;31.70;;;;;;;3.83;100.00;101665.09;180897;1269;57938;-75
2023/01/22 19:05:54;;;;;;;53.60;30.40;;;;;;;3.84;100.00;101667.86;180949;1267;43116;-76
2023/01/22 19:09:58;;;;;;;48.50;30.80;;;;;;;3.83;100.00;101670.17;180916;1267;43438;-75
2023/01/22 19:14:04;;;;;;;44.00;29.10;;;;;;;3.83;100.00;101674.92;181005;1267;43604;-76
2023/01/22 19:18:08;;;;;;;38.00;25.80;;;;;;;3.80;100.00;101680.11;180905;1267;43741;-75
2023/01/22 19:22:10;;;;;;;42.80;26.60;;;;;;;3.79;100.00;101683.65;180912;1267;58319;-76
2023/01/22 19:26:40;;;;;;;44.60;29.80;;;;;;;3.82;100.00;101693.91;180969;1272;43202;-76
2023/01/22 19:30:43;;;;;;;53.60;34.60;;;;;;;3.84;100.00;101695.25;181010;1267;43528;-77
2023/01/22 19:34:46;;;;;;;54.30;34.50;;;;;;;3.88;100.00;101703.92;181026;1267;43479;-77
2023/01/22 19:38:57;;;;;;;51.20;34.10;;;;;;;3.92;100.00;101711.70;180934;1268;43789;-77
2023/01/22 19:43:00;;;;;;;53.60;33.50;;;;;;;3.98;100.00;101716.59;180902;1267;57960;-76
2023/01/22 19:47:04;;;;;;;56.90;33.50;;;;;;;4.04;100.00;101713.95;180864;1267;43073;-77
2023/01/22 19:51:10;;;;;;;51.30;33.50;;;;;;;4.05;100.00;101714.80;180927;1267;43069;-77
2023/01/22 19:55:48;;;;;;;62.00;39.20;;;;;;;4.06;100.00;101718.98;180954;1267;43724;-77
2023/01/22 19:59:56;;;;;;;52.40;36.40;;;;;;;4.05;100.00;101723.73;180908;1267;43738;-77
2023/01/22 20:04:03;;;;;;;53.90;34.60;;;;;;;4.06;100.00;101726.69;180906;1267;57908;-77
2023/01/22 20:08:07;;;;;;;54.70;34.90;;;;;;;4.02;100.00;101732.96;180941;1267;43321;-77
2023/01/22 20:12:10;;;;;;;50.90;31.30;;;;;;;3.99;100.00;101733.59;180978;1267;43163;-76
2023/01/22 20:16:50;;;;;;;54.50;34.40;;;;;;;3.93;100.00;101732.88;181044;1267;43112;-77
2023/01/22 20:20:58;;;;;;;48.80;32.50;;;;;;;3.91;100.00;101730.66;180918;1268;42991;-77
2023/01/22 20:25:02;;;;;;;49.60;32.90;;;;;;;4.01;100.00;101731.59;180899;1267;58093;-77
2023/01/22 20:29:05;;;;;;;47.90;32.40;;;;;;;4.10;100.00;101724.63;180878;1268;43800;-77
2023/01/22 20:33:36;;;;;;;54.10;36.80;;;;;;;4.13;100.00;101729.63;180880;1267;43736;-76
2023/01/22 20:37:39;;;;;;;55.40;33.90;;;;;;;4.17;100.00;101731.11;180906;1268;43843;-75
2023/01/22 20:41:44;;;;;;;47.20;30.50;;;;;;;4.17;100.00;101729.38;180989;1268;43730;-76
2023/01/22 20:46:01;;;;;;;63.70;36.30;;;;;;;4.16;100.00;101732.36;180911;1268;58071;-77
2023/01/22 20:55:40;;;;;;;42.50;25.10;;;;;;;4.13;100.00;101735.09;180754;1275;44004;-81
2023/01/22 20:59:43;;;;;;;45.50;27.30;;;;;;;4.08;100.00;101740.52;180570;1270;43526;-77
2023/01/22 21:04:37;;;;;;;49.90;30.30;;;;;;;4.01;100.00;101744.41;180696;1270;43072;-76
2023/01/22 21:08:41;;;;;;;62.10;38.20;;;;;;;3.95;100.00;101753.54;180888;1268;58017;-76
2023/01/22 21:12:44;;;;;;;41.50;28.10;;;;;;;3.91;100.00;101753.33;180843;1268;43010;-76
2023/01/22 21:16:48;;;;;;;42.70;27.20;;;;;;;3.87;100.00;101756.42;180952;1268;43769;-77
2023/01/22 21:20:51;;;;;;;50.80;29.30;;;;;;;3.85;100.00;101761.21;180888;1268;43634;-77
2023/01/22 21:24:54;;;;;;;55.10;30.40;;;;;;;3.85;100.00;101762.09;180964;1268;44018;-76
2023/01/22 21:34:17;;;;;;;46.00;28.10;;;;;;;3.82;100.00;101769.89;180977;1267;43820;-76